createdAt,value
2023-02-26T00:00:15.329Z,61.50
2023-02-26T00:03:59.754Z,61.50
2023-02-26T00:07:41.896Z,61.40
2023-02-26T00:11:24.077Z,61.40
2023-02-26T00:15:08.192Z,61.40
2023-02-26T00:18:50.187Z,61.30
2023-02-26T00:22:32.388Z,61.30
2023-02-26T00:26:14.132Z,61.30
2023-02-26T00:29:56.150Z,61.30
2023-02-26T00:33:38.251Z,61.20
2023-02-26T00:37:48.849Z,61.20
2023-02-26T00:41:31.161Z,61.20
2023-02-26T00:45:14.599Z,61.20
2023-02-26T00:49:02.534Z,61.20
2023-02-26T00:52:53.136Z,61.20
2023-02-26T00:56:35.002Z,61.10
2023-02-26T01:00:17.298Z,61.10
2023-02-26T01:03:59.346Z,61.10
2023-02-26T01:08:10.401Z,61.10
2023-02-26T01:11:53.010Z,61.10
2023-02-26T01:15:35.503Z,61.00
2023-02-26T01:19:38.417Z,61.00
2023-02-26T01:23:25.553Z,60.90
2023-02-26T01:27:07.483Z,60.90
2023-02-26T01:30:50.423Z,60.90
2023-02-26T01:34:32.217Z,60.90
2023-02-26T01:38:28.386Z,60.90
2023-02-26T01:42:23.524Z,60.80
2023-02-26T01:46:18.318Z,60.80
2023-02-26T01:50:14.195Z,60.80
2023-02-26T01:53:55.898Z,60.80
2023-02-26T01:57:37.977Z,60.80
2023-02-26T02:01:19.699Z,60.80
2023-02-26T02:05:11.379Z,60.80
2023-02-26T02:08:53.518Z,60.70
2023-02-26T02:13:12.503Z,60.80
2023-02-26T02:17:10.884Z,60.70
2023-02-26T02:21:09.446Z,60.70
2023-02-26T02:25:11.469Z,60.70
2023-02-26T02:29:18.081Z,60.60
2023-02-26T02:33:02.406Z,60.60
2023-02-26T02:36:53.140Z,60.60
2023-02-26T02:40:39.335Z,60.60
2023-02-26T02:44:24.360Z,60.60
2023-02-26T02:48:28.884Z,60.60
2023-02-26T02:52:36.249Z,60.60
2023-02-26T02:56:27.609Z,60.60
2023-02-26T03:00:12.890Z,60.50
2023-02-26T03:04:11.861Z,60.60
2023-02-26T03:07:57.525Z,60.50
2023-02-26T03:11:40.258Z,60.50
2023-02-26T03:15:47.375Z,60.50
2023-02-26T03:19:39.240Z,60.50
2023-02-26T03:23:45.304Z,60.50
2023-02-26T03:27:50.362Z,60.40
2023-02-26T03:31:40.033Z,60.40
2023-02-26T03:35:40.902Z,60.30
2023-02-26T03:39:47.491Z,60.30
2023-02-26T03:43:41.195Z,60.30
2023-02-26T03:47:23.734Z,60.30
2023-02-26T03:51:10.380Z,60.30
2023-02-26T03:55:04.985Z,60.30
2023-02-26T03:58:46.840Z,60.30
2023-02-26T04:02:41.997Z,61.00
2023-02-26T04:06:24.780Z,60.30
2023-02-26T04:10:10.089Z,60.30
2023-02-26T04:13:51.930Z,60.20
2023-02-26T04:17:33.636Z,60.20
2023-02-26T04:21:17.930Z,60.20
2023-02-26T04:24:59.726Z,60.20
2023-02-26T04:28:41.872Z,60.20
2023-02-26T04:32:23.631Z,60.20
2023-02-26T04:36:05.726Z,60.20
2023-02-26T04:39:47.483Z,60.20
2023-02-26T04:43:29.323Z,60.20
2023-02-26T04:47:11.110Z,60.20
2023-02-26T04:50:52.861Z,60.20
2023-02-26T04:54:34.643Z,60.10
2023-02-26T04:58:16.550Z,60.10
2023-02-26T05:01:58.795Z,60.10
2023-02-26T05:05:40.684Z,60.00
2023-02-26T05:09:22.416Z,60.10
2023-02-26T05:13:04.174Z,60.00
2023-02-26T05:16:45.970Z,60.00
2023-02-26T05:20:27.954Z,60.60
2023-02-26T05:24:09.709Z,60.00
2023-02-26T05:27:51.593Z,60.00
2023-02-26T05:31:33.387Z,60.00
2023-02-26T05:35:15.458Z,60.00
2023-02-26T05:38:57.208Z,59.90
2023-02-26T05:42:40.081Z,60.00
2023-02-26T05:46:21.947Z,59.90
2023-02-26T05:50:05.247Z,60.00
2023-02-26T05:53:47.028Z,59.90
2023-02-26T05:57:29.205Z,59.90
2023-02-26T06:01:10.932Z,59.90
2023-02-26T06:04:52.762Z,59.90
2023-02-26T06:08:34.467Z,60.50
2023-02-26T06:12:16.201Z,59.80
2023-02-26T06:15:58.106Z,59.80
2023-02-26T06:19:39.817Z,59.80
2023-02-26T06:23:21.515Z,59.80
2023-02-26T06:27:03.337Z,59.80
2023-02-26T06:30:45.655Z,59.80
2023-02-26T06:34:27.447Z,59.70
2023-02-26T06:38:09.208Z,59.80
2023-02-26T06:41:50.901Z,59.80
2023-02-26T06:45:32.804Z,60.30
2023-02-26T06:49:14.561Z,60.40
2023-02-26T06:52:56.809Z,60.00
2023-02-26T06:56:38.608Z,60.30
2023-02-26T07:00:20.839Z,60.40
2023-02-26T07:04:02.594Z,60.60
2023-02-26T07:07:44.648Z,60.90
2023-02-26T07:11:26.565Z,61.60
2023-02-26T07:15:08.762Z,61.10
2023-02-26T07:18:50.533Z,61.10
2023-02-26T07:22:33.396Z,62.00
2023-02-26T07:26:17.459Z,61.50
2023-02-26T07:30:00.021Z,61.50
2023-02-26T07:33:41.840Z,61.60
2023-02-26T07:37:23.698Z,61.60
2023-02-26T07:41:05.681Z,61.70
2023-02-26T07:44:47.558Z,62.30
2023-02-26T07:48:29.300Z,61.70
2023-02-26T07:52:11.289Z,61.70
2023-02-26T07:55:53.072Z,61.80
2023-02-26T07:59:34.780Z,61.60
2023-02-26T08:03:16.587Z,61.30
2023-02-26T08:06:59.107Z,61.30
2023-02-26T08:10:42.185Z,61.90
2023-02-26T08:14:24.129Z,61.80
2023-02-26T08:18:05.921Z,61.10
2023-02-26T08:21:47.950Z,61.10
2023-02-26T08:25:30.401Z,61.00
2023-02-26T08:29:12.408Z,61.00
2023-02-26T08:32:54.138Z,61.00
2023-02-26T08:36:35.903Z,60.90
2023-02-26T08:40:17.960Z,60.90
2023-02-26T08:44:01.225Z,60.90
2023-02-26T08:47:55.624Z,60.90
2023-02-26T08:51:38.645Z,60.90
2023-02-26T08:55:20.631Z,61.10
2023-02-26T08:59:02.341Z,62.00
2023-02-26T09:02:44.918Z,61.30
2023-02-26T09:06:27.005Z,61.50
2023-02-26T09:10:10.391Z,61.30
2023-02-26T09:13:52.094Z,61.80
2023-02-26T09:17:34.507Z,61.60
2023-02-26T09:21:16.202Z,61.90
2023-02-26T09:24:58.059Z,61.90
2023-02-26T09:28:39.881Z,61.90
2023-02-26T09:32:21.748Z,61.70
2023-02-26T09:36:03.773Z,61.60
2023-02-26T09:39:45.489Z,61.60
2023-02-26T09:44:08.549Z,61.70
2023-02-26T09:47:54.054Z,61.80
2023-02-26T09:51:37.094Z,61.80
2023-02-26T09:55:24.926Z,61.80
2023-02-26T09:59:08.869Z,61.80
2023-02-26T10:03:31.816Z,61.80
2023-02-26T10:07:25.270Z,61.80
2023-02-26T10:11:24.901Z,61.80
2023-02-26T10:15:13.646Z,61.90
2023-02-26T10:19:06.964Z,61.90
2023-02-26T10:23:00.995Z,61.90
2023-02-26T10:26:53.791Z,62.00
2023-02-26T10:31:03.413Z,61.90
2023-02-26T10:34:51.298Z,61.20
2023-02-26T10:38:33.220Z,60.90
2023-02-26T10:42:41.928Z,60.30
2023-02-26T10:46:46.363Z,60.00
2023-02-26T10:50:29.338Z,60.40
2023-02-26T10:54:37.903Z,60.30
2023-02-26T10:58:26.556Z,60.00
2023-02-26T11:02:38.881Z,59.90
2023-02-26T11:07:03.455Z,60.00
2023-02-26T11:10:52.723Z,60.00
2023-02-26T11:14:34.773Z,59.40
2023-02-26T11:18:23.451Z,59.30
2023-02-26T11:22:09.772Z,58.90
2023-02-26T11:26:06.201Z,58.90
2023-02-26T11:29:57.776Z,59.00
2023-02-26T11:33:43.857Z,59.10
2023-02-26T11:37:37.056Z,59.50
2023-02-26T11:41:19.384Z,60.00
2023-02-26T11:45:01.118Z,59.40
2023-02-26T11:48:50.188Z,59.60
2023-02-26T11:52:56.448Z,59.70
2023-02-26T11:56:44.470Z,60.00
2023-02-26T12:00:32.978Z,60.80
2023-02-26T12:04:18.908Z,60.80
2023-02-26T12:08:03.104Z,61.00
2023-02-26T12:12:07.760Z,61.00
2023-02-26T12:16:33.125Z,59.70
2023-02-26T12:20:51.113Z,60.00
2023-02-26T12:24:45.771Z,58.80
2023-02-26T12:29:01.021Z,58.50
2023-02-26T12:32:45.966Z,58.20
2023-02-26T12:36:46.438Z,58.10
2023-02-26T12:40:57.744Z,58.60
2023-02-26T12:45:00.067Z,59.00
2023-02-26T12:49:02.300Z,58.90
2023-02-26T12:52:58.587Z,58.90
2023-02-26T12:57:05.636Z,59.00
2023-02-26T13:00:55.363Z,59.00
2023-02-26T13:04:56.642Z,58.90
2023-02-26T13:08:57.910Z,59.00
2023-02-26T13:12:52.557Z,59.30
2023-02-26T13:16:52.053Z,59.40
2023-02-26T13:20:37.826Z,59.80
2023-02-26T13:24:26.167Z,60.20
2023-02-26T13:28:33.582Z,59.40
2023-02-26T13:32:20.027Z,59.60
2023-02-26T13:36:04.806Z,60.30
2023-02-26T13:40:19.339Z,60.40
2023-02-26T13:44:10.358Z,60.20
2023-02-26T13:47:57.913Z,59.30
2023-02-26T13:51:43.541Z,59.00
2023-02-26T13:55:48.354Z,58.80
2023-02-26T13:59:32.018Z,58.90
2023-02-26T14:03:16.729Z,58.80
2023-02-26T14:07:05.913Z,58.80
2023-02-26T14:11:16.952Z,58.70
2023-02-26T14:14:59.305Z,58.30
2023-02-26T14:18:52.091Z,58.60
2023-02-26T14:22:41.720Z,58.60
2023-02-26T14:26:25.395Z,58.60
2023-02-26T14:30:10.064Z,58.60
2023-02-26T14:34:15.037Z,58.50
2023-02-26T14:38:04.121Z,58.40
2023-02-26T14:41:46.690Z,58.30
2023-02-26T14:45:36.462Z,58.50
2023-02-26T14:49:30.560Z,58.60
2023-02-26T14:53:43.191Z,58.60
2023-02-26T14:57:30.623Z,58.40
2023-02-26T15:01:26.408Z,58.10
2023-02-26T15:05:17.246Z,58.70
2023-02-26T15:09:21.554Z,58.20
2023-02-26T15:13:24.915Z,58.10
2023-02-26T15:17:39.920Z,58.10
2023-02-26T15:21:30.757Z,58.10
2023-02-26T15:25:27.703Z,57.60
2023-02-26T15:29:12.302Z,58.70
2023-02-26T15:33:03.637Z,58.70
2023-02-26T15:36:47.082Z,58.90
2023-02-26T15:40:33.036Z,59.30
2023-02-26T15:44:23.791Z,59.80
2023-02-26T15:48:22.198Z,59.70
2023-02-26T15:52:05.850Z,59.90
2023-02-26T15:55:53.630Z,59.90
2023-02-26T15:59:45.320Z,60.20
2023-02-26T16:03:35.772Z,60.30
2023-02-26T16:07:17.525Z,60.10
2023-02-26T16:11:01.433Z,60.10
2023-02-26T16:14:51.801Z,60.10
2023-02-26T16:18:34.978Z,59.90
2023-02-26T16:22:41.875Z,59.90
2023-02-26T16:26:37.946Z,59.70
2023-02-26T16:30:26.871Z,59.80
2023-02-26T16:34:37.732Z,59.90
2023-02-26T16:38:30.036Z,59.70
2023-02-26T16:42:22.221Z,59.80
2023-02-26T16:46:05.633Z,59.90
2023-02-26T16:49:48.223Z,60.40
2023-02-26T16:53:36.019Z,59.80
2023-02-26T16:57:23.089Z,60.10
2023-02-26T17:01:13.054Z,59.80
2023-02-26T17:05:01.204Z,59.80
2023-02-26T17:08:57.022Z,59.80
2023-02-26T17:12:47.770Z,60.00
2023-02-26T17:16:29.700Z,60.20
2023-02-26T17:20:12.401Z,60.40
2023-02-26T17:23:54.688Z,59.70
2023-02-26T17:27:37.028Z,58.50
2023-02-26T17:31:20.113Z,58.00
2023-02-26T17:35:03.175Z,57.80
2023-02-26T17:38:47.095Z,57.40
2023-02-26T17:42:28.845Z,57.10
2023-02-26T17:46:12.353Z,56.00
2023-02-26T17:49:54.393Z,57.30
2023-02-26T17:53:40.961Z,58.20
2023-02-26T17:57:23.329Z,58.70
2023-02-26T18:01:05.215Z,59.00
2023-02-26T18:04:46.974Z,59.20
2023-02-26T18:08:31.593Z,59.40
2023-02-26T18:12:23.055Z,59.60
2023-02-26T18:16:06.404Z,59.70
2023-02-26T18:19:49.459Z,59.80
2023-02-26T18:23:31.510Z,59.90
2023-02-26T18:27:21.700Z,59.90
2023-02-26T18:31:08.557Z,60.10
2023-02-26T18:34:51.636Z,60.10
2023-02-26T18:38:34.462Z,58.20
2023-02-26T18:42:27.404Z,55.50
2023-02-26T18:46:10.967Z,57.30
2023-02-26T18:49:52.745Z,58.80
2023-02-26T18:53:35.433Z,59.30
2023-02-26T18:57:17.346Z,59.10
2023-02-26T19:01:00.072Z,59.20
2023-02-26T19:04:42.437Z,59.30
2023-02-26T19:08:24.186Z,60.10
2023-02-26T19:12:06.409Z,59.50
2023-02-26T19:15:49.583Z,59.50
2023-02-26T19:19:31.333Z,59.50
2023-02-26T19:23:13.165Z,60.20
2023-02-26T19:26:56.102Z,59.50
2023-02-26T19:30:39.711Z,59.50
2023-02-26T19:34:21.433Z,59.50
2023-02-26T19:38:03.282Z,59.50
2023-02-26T19:41:49.062Z,59.40
2023-02-26T19:45:30.837Z,59.40
2023-02-26T19:49:13.446Z,59.30
2023-02-26T19:52:56.125Z,59.30
2023-02-26T19:56:37.956Z,59.30
2023-02-26T20:00:20.015Z,59.20
2023-02-26T20:04:03.751Z,59.20
2023-02-26T20:07:45.689Z,59.10
2023-02-26T20:11:27.777Z,59.00
2023-02-26T20:15:10.417Z,59.00
2023-02-26T20:18:52.123Z,58.90
2023-02-26T20:22:33.886Z,58.90
2023-02-26T20:26:16.245Z,58.80
2023-02-26T20:29:58.001Z,58.80
2023-02-26T20:33:39.919Z,58.70
2023-02-26T20:37:21.733Z,58.70
2023-02-26T20:41:04.570Z,58.70
2023-02-26T20:44:46.290Z,58.60
2023-02-26T20:48:28.443Z,58.60
2023-02-26T20:52:10.228Z,58.60
2023-02-26T20:55:51.979Z,58.60
2023-02-26T20:59:33.686Z,58.50
2023-02-26T21:03:15.456Z,58.50
2023-02-26T21:07:12.533Z,58.50
2023-02-26T21:10:54.326Z,58.40
2023-02-26T21:14:36.545Z,58.40
2023-02-26T21:18:18.489Z,58.30
2023-02-26T21:22:00.994Z,58.30
2023-02-26T21:25:42.803Z,58.30
2023-02-26T21:29:24.634Z,58.90
2023-02-26T21:33:08.476Z,58.30
2023-02-26T21:36:51.179Z,58.20
2023-02-26T21:40:33.121Z,58.20
2023-02-26T21:44:14.842Z,58.10
2023-02-26T21:47:56.783Z,58.10
2023-02-26T21:51:38.513Z,58.10
2023-02-26T21:55:20.285Z,58.00
2023-02-26T21:59:02.044Z,58.10
2023-02-26T22:02:44.709Z,58.00
2023-02-26T22:06:26.957Z,57.90
2023-02-26T22:10:10.912Z,57.90
2023-02-26T22:13:52.715Z,58.00
2023-02-26T22:17:34.405Z,57.90
2023-02-26T22:21:16.178Z,57.80
2023-02-26T22:24:57.897Z,57.80
2023-02-26T22:28:39.664Z,57.80
2023-02-26T22:32:21.508Z,57.80
2023-02-26T22:36:03.961Z,57.80
2023-02-26T22:39:45.679Z,57.70
2023-02-26T22:43:27.389Z,57.70
2023-02-26T22:47:10.583Z,57.60
2023-02-26T22:50:52.296Z,57.60
2023-02-26T22:54:34.329Z,58.20
2023-02-26T22:58:16.047Z,58.20
2023-02-26T23:01:57.728Z,57.50
2023-02-26T23:05:39.475Z,57.50
2023-02-26T23:09:21.452Z,58.10
2023-02-26T23:13:03.253Z,57.50
2023-02-26T23:16:45.164Z,57.50
2023-02-26T23:20:26.981Z,57.40
2023-02-26T23:24:08.796Z,57.30
2023-02-26T23:27:50.509Z,57.40
2023-02-26T23:31:33.159Z,57.40
2023-02-26T23:35:15.016Z,57.30
2023-02-26T23:38:56.865Z,57.30
2023-02-26T23:42:38.679Z,57.20
2023-02-26T23:46:20.435Z,57.30
2023-02-26T23:50:02.409Z,57.20
2023-02-26T23:53:44.171Z,57.10
2023-02-26T23:57:25.961Z,57.10
